Time;durP1;ratioP1;P1;durP2;ratioP2;P2;SDS_P1;SDS_P2;PMS_P1;PMS_P2;Temp;Humidity;BMP_temperature;BMP_pressure;BME280_temperature;BME280_humidity;BME280_pressure;Samples;Min_cycle;Max_cycle;Signal;HPM_P1;HPM_P2
2021/06/20 00:00:25;;;;;;;38.42;27.15;;;;;;;18.04;84.43;100859.00;4989576;28;20041;-67
2021/06/20 00:02:52;;;;;;;39.22;26.33;;;;;;;17.99;85.25;100853.38;4990312;28;20030;-67
2021/06/20 00:05:25;;;;;;;33.85;26.15;;;;;;;17.97;85.34;100852.75;4989390;28;20107;-67
2021/06/20 00:07:51;;;;;;;42.38;26.80;;;;;;;17.89;85.94;100856.50;4990019;28;20045;-67
2021/06/20 00:10:20;;;;;;;33.47;27.17;;;;;;;17.87;86.29;100852.38;4989271;28;20030;-67
2021/06/20 00:12:46;;;;;;;36.58;27.65;;;;;;;17.93;85.81;100856.91;4989162;28;20044;-67
2021/06/20 00:15:14;;;;;;;37.47;27.40;;;;;;;17.85;86.28;100849.03;4989359;28;20465;-67
2021/06/20 00:17:40;;;;;;;41.88;28.40;;;;;;;17.80;86.31;100840.69;4989819;28;20034;-67
2021/06/20 00:20:07;;;;;;;40.80;27.95;;;;;;;17.79;86.46;100837.16;4973027;28;20099;-67
2021/06/20 00:22:33;;;;;;;38.25;27.00;;;;;;;17.78;86.63;100822.00;4989254;28;20056;-67
2021/06/20 00:24:59;;;;;;;33.38;25.92;;;;;;;17.74;87.09;100812.63;4989244;28;20110;-67
2021/06/20 00:27:24;;;;;;;35.85;25.80;;;;;;;17.76;86.62;100817.84;4988810;28;20042;-67
2021/06/20 00:29:50;;;;;;;34.13;27.48;;;;;;;17.77;86.56;100814.09;4990154;28;20053;-67
2021/06/20 00:32:15;;;;;;;40.07;27.83;;;;;;;17.73;86.86;100808.28;4989889;28;20474;-67
2021/06/20 00:34:41;;;;;;;31.70;23.90;;;;;;;17.74;87.01;100804.53;4989030;28;20487;-67
2021/06/20 00:37:06;;;;;;;36.50;26.90;;;;;;;17.74;87.07;100812.63;4989335;28;20031;-67
2021/06/20 00:39:32;;;;;;;38.67;28.65;;;;;;;17.72;87.34;100807.47;4989653;28;20102;-67
2021/06/20 00:41:58;;;;;;;42.63;30.10;;;;;;;17.74;87.57;100807.25;4989742;28;20349;-68
2021/06/20 00:44:23;;;;;;;37.90;28.40;;;;;;;17.76;88.16;100804.34;4989666;28;20121;-67
2021/06/20 00:46:48;;;;;;;43.13;28.57;;;;;;;17.74;88.06;100801.84;4989195;28;20360;-67
2021/06/20 00:49:14;;;;;;;41.37;29.60;;;;;;;17.70;88.91;100793.34;4989654;28;20487;-67
2021/06/20 00:51:40;;;;;;;43.47;29.43;;;;;;;17.72;88.71;100791.28;4989700;28;20038;-67
2021/06/20 00:54:05;;;;;;;39.67;28.75;;;;;;;17.72;88.20;100788.56;4972516;28;20046;-67
2021/06/20 00:56:32;;;;;;;47.17;32.50;;;;;;;17.77;88.79;100777.16;4988551;28;20058;-67
2021/06/20 00:59:04;;;;;;;44.03;31.33;;;;;;;17.73;89.03;100778.59;4989618;28;20026;-67
2021/06/20 01:01:31;;;;;;;51.50;31.80;;;;;;;17.69;89.34;100783.56;4988677;28;20073;-67
2021/06/20 01:03:57;;;;;;;44.20;31.30;;;;;;;17.67;89.27;100777.53;4989565;28;20459;-67
2021/06/20 01:06:23;;;;;;;43.63;30.50;;;;;;;17.70;89.68;100758.25;4989201;28;20095;-67
2021/06/20 01:08:48;;;;;;;49.90;33.17;;;;;;;17.71;89.88;100759.88;4989325;28;20043;-67
2021/06/20 01:11:14;;;;;;;47.87;31.97;;;;;;;17.75;89.82;100745.97;4988463;28;20288;-67
2021/06/20 01:13:39;;;;;;;54.25;35.63;;;;;;;17.73;89.78;100735.41;4989302;28;20501;-67
2021/06/20 01:16:05;;;;;;;48.63;34.77;;;;;;;17.71;89.85;100716.69;4988096;28;20049;-67
2021/06/20 01:18:30;;;;;;;52.53;35.17;;;;;;;17.71;89.67;100715.88;4989190;28;20069;-67
2021/06/20 01:20:55;;;;;;;50.13;32.67;;;;;;;17.73;89.94;100711.91;4989225;28;20044;-67
2021/06/20 01:23:21;;;;;;;46.83;33.90;;;;;;;17.77;89.92;100706.94;4989204;28;20030;-67
2021/06/20 01:25:46;;;;;;;50.67;33.43;;;;;;;17.78;89.70;100707.75;4988184;28;20053;-67
2021/06/20 01:28:13;;;;;;;56.93;36.33;;;;;;;17.77;90.06;100695.28;4988973;28;20038;-67
2021/06/20 01:30:44;;;;;;;53.97;35.38;;;;;;;17.75;90.02;100679.31;4989053;28;20042;-67
2021/06/20 01:33:11;;;;;;;58.60;38.35;;;;;;;17.73;90.17;100679.50;4988340;28;20637;-67
2021/06/20 01:35:36;;;;;;;;;;;;;;;17.76;90.41;100678.25;4988524;28;20085;-67
2021/06/20 01:38:03;;;;;;;;;;;;;;;17.78;90.11;100681.59;4988411;28;19957;-67
2021/06/20 01:40:29;;;;;;;51.60;35.10;;;;;;;17.81;90.34;100691.16;4988963;28;19913;-67
2021/06/20 01:42:54;;;;;;;61.20;38.73;;;;;;;17.73;90.36;100695.72;4988886;28;20463;-67
2021/06/20 01:45:22;;;;;;;64.30;37.13;;;;;;;17.80;90.17;100711.09;4988866;28;20038;-67
2021/06/20 01:47:50;;;;;;;60.72;36.65;;;;;;;17.80;90.27;100713.78;4988570;28;20528;-67
2021/06/20 01:50:17;;;;;;;64.50;37.45;;;;;;;17.79;90.27;100714.81;4992480;28;20105;-67
2021/06/20 01:52:43;;;;;;;54.00;35.78;;;;;;;17.80;90.11;100716.47;4995265;28;20146;-67
2021/06/20 01:55:10;;;;;;;50.30;34.92;;;;;;;17.82;90.17;100720.66;4994331;28;20046;-67
2021/06/20 01:57:38;;;;;;;58.63;37.55;;;;;;;17.82;89.86;100736.03;4994924;28;20034;-67
2021/06/20 02:00:10;;;;;;;49.85;34.00;;;;;;;17.80;90.28;100744.31;4995183;28;20038;-67
2021/06/20 02:02:39;;;;;;;55.10;35.97;;;;;;;17.79;89.94;100756.13;4994912;28;20038;-67
2021/06/20 02:05:05;;;;;;;54.83;33.45;;;;;;;17.83;90.20;100764.69;4995219;28;20117;-67
2021/06/20 02:07:32;;;;;;;54.67;34.90;;;;;;;17.88;90.07;100771.13;4994834;28;20440;-67
2021/06/20 02:09:58;;;;;;;47.85;32.83;;;;;;;17.86;89.77;100765.13;4995086;28;20037;-67
2021/06/20 02:12:25;;;;;;;51.22;32.60;;;;;;;17.84;89.59;100778.00;4995047;28;20054;-67
2021/06/20 02:14:52;;;;;;;45.15;32.13;;;;;;;17.85;89.50;100765.31;4994198;28;20095;-67
2021/06/20 02:17:29;;;;;;;48.47;32.33;;;;;;;17.84;89.35;100750.13;4994723;28;20049;-67
2021/06/20 02:19:57;;;;;;;47.80;33.00;;;;;;;17.87;89.60;100728.97;4994971;28;20046;-67
2021/06/20 02:22:24;;;;;;;43.42;30.10;;;;;;;17.88;89.80;100718.97;4994844;28;20424;-67
2021/06/20 02:24:50;;;;;;;43.70;29.55;;;;;;;17.90;89.62;100711.50;4994900;28;20050;-67
2021/06/20 02:27:16;;;;;;;42.72;29.73;;;;;;;17.90;89.39;100700.69;4993501;28;20038;-67
2021/06/20 02:29:43;;;;;;;44.83;29.45;;;;;;;17.91;89.61;100689.69;4994859;28;20462;-67
2021/06/20 02:32:10;;;;;;;44.65;30.40;;;;;;;17.95;89.58;100687.38;4994783;28;20038;-67
2021/06/20 02:34:38;;;;;;;45.00;30.98;;;;;;;18.02;89.54;100698.16;4994018;28;20041;-67
2021/06/20 02:37:05;;;;;;;40.40;29.42;;;;;;;18.08;88.70;100689.22;4993434;28;20121;-67
2021/06/20 02:39:30;;;;;;;43.53;30.92;;;;;;;18.11;88.89;100691.47;4994849;28;20034;-67
2021/06/20 02:41:56;;;;;;;41.72;29.65;;;;;;;18.11;88.65;100670.69;4994667;28;20490;-67
2021/06/20 02:44:21;;;;;;;44.30;29.37;;;;;;;18.10;88.79;100669.06;4994827;28;20467;-67
2021/06/20 02:46:46;;;;;;;39.35;26.60;;;;;;;18.14;88.75;100659.47;4993655;28;20046;-67
2021/06/20 02:49:12;;;;;;;39.17;26.13;;;;;;;18.22;88.11;100649.47;4994823;28;20259;-67
2021/06/20 02:51:40;;;;;;;34.50;22.30;;;;;;;18.26;87.39;100640.72;4994555;28;20037;-67
2021/06/20 02:54:06;;;;;;;27.95;21.38;;;;;;;18.38;86.11;100640.88;4994709;28;20038;-67
2021/06/20 02:56:31;;;;;;;29.60;19.73;;;;;;;18.43;85.08;100635.63;4994280;28;20038;-67
2021/06/20 02:58:56;;;;;;;28.07;18.87;;;;;;;18.58;84.38;100631.78;4977482;28;20083;-68
2021/06/20 03:01:22;;;;;;;31.00;17.20;;;;;;;18.59;84.41;100636.16;4992080;28;20073;-68
2021/06/20 03:03:47;;;;;;;22.80;17.00;;;;;;;18.66;83.63;100636.94;4991283;28;20043;-68
2021/06/20 03:06:13;;;;;;;21.83;14.70;;;;;;;18.71;82.85;100629.00;4989905;28;20049;-68
2021/06/20 03:08:38;;;;;;;18.15;13.52;;;;;;;18.76;82.33;100621.06;4974105;28;20045;-68
2021/06/20 03:11:04;;;;;;;19.80;13.43;;;;;;;18.78;82.20;100610.88;4991390;28;20368;-68
2021/06/20 03:13:29;;;;;;;19.60;13.07;;;;;;;18.84;81.13;100591.06;4990298;28;20375;-68
2021/06/20 03:15:55;;;;;;;15.60;12.70;;;;;;;18.91;81.10;100599.94;4990100;28;20061;-68
2021/06/20 03:18:20;;;;;;;20.80;12.55;;;;;;;18.97;80.84;100588.25;4991145;28;20072;-68
2021/06/20 03:20:46;;;;;;;14.50;11.67;;;;;;;19.02;80.46;100594.88;4990995;28;20065;-68
2021/06/20 03:23:11;;;;;;;16.90;11.50;;;;;;;19.10;80.12;100583.75;4991034;28;20057;-68
2021/06/20 03:25:38;;;;;;;12.68;10.88;;;;;;;19.17;79.99;100573.69;4991206;28;20053;-68
2021/06/20 03:28:03;;;;;;;16.65;11.30;;;;;;;19.21;79.62;100568.69;4990592;28;20038;-68
2021/06/20 03:30:29;;;;;;;15.27;11.50;;;;;;;19.23;79.59;100567.41;4990945;28;20035;-68
2021/06/20 03:32:54;;;;;;;15.50;10.60;;;;;;;19.29;79.39;100561.09;4990007;28;20391;-68
2021/06/20 03:35:20;;;;;;;16.97;12.40;;;;;;;19.29;79.60;100549.44;4990767;28;20042;-68
2021/06/20 03:37:45;;;;;;;12.23;10.90;;;;;;;19.31;79.30;100537.31;4990393;28;20353;-68
2021/06/20 03:40:11;;;;;;;15.47;10.57;;;;;;;19.33;79.52;100535.22;4990825;28;20073;-68
2021/06/20 03:42:37;;;;;;;12.45;10.30;;;;;;;19.40;79.28;100527.84;4989845;28;20041;-68
2021/06/20 03:45:05;;;;;;;13.43;10.70;;;;;;;19.44;79.58;100522.00;4990792;28;20121;-68
2021/06/20 03:47:32;;;;;;;14.52;11.55;;;;;;;19.47;79.36;100511.53;4990346;28;20039;-68
2021/06/20 03:49:57;;;;;;;14.65;11.30;;;;;;;19.58;79.19;100515.38;4990532;28;20548;-68
2021/06/20 03:52:23;;;;;;;14.23;12.02;;;;;;;19.56;79.52;100514.75;4990702;28;20045;-68
2021/06/20 03:54:50;;;;;;;14.37;12.50;;;;;;;19.63;79.26;100510.09;4990581;28;20042;-68
2021/06/20 03:57:21;;;;;;;18.35;12.70;;;;;;;19.62;79.07;100503.03;4990310;28;20038;-67
2021/06/20 03:59:47;;;;;;;16.73;12.40;;;;;;;19.71;79.39;100506.25;4990447;28;20121;-68
2021/06/20 04:02:12;;;;;;;20.10;12.98;;;;;;;19.70;79.48;100505.44;4990546;28;20142;-68
2021/06/20 04:04:40;;;;;;;16.40;13.27;;;;;;;19.74;79.62;100490.41;4973164;28;20030;-67
2021/06/20 04:07:11;;;;;;;18.17;14.70;;;;;;;19.72;79.61;100481.66;4990159;28;20088;-67
2021/06/20 04:09:38;;;;;;;19.25;12.85;;;;;;;19.78;79.52;100483.47;4989261;28;20123;-68
2021/06/20 04:12:03;;;;;;;14.20;12.77;;;;;;;19.68;79.80;100464.22;4989703;28;20038;-67
2021/06/20 04:14:30;;;;;;;16.57;13.77;;;;;;;19.84;79.67;100467.34;4989458;28;20061;-68
2021/06/20 04:16:55;;;;;;;18.15;13.30;;;;;;;19.79;79.12;100471.56;4990051;28;20046;-67
2021/06/20 04:19:20;;;;;;;17.27;13.37;;;;;;;19.80;79.77;100451.53;4990119;28;20053;-67
2021/06/20 04:21:46;;;;;;;17.10;13.47;;;;;;;19.84;79.70;100445.69;4989212;28;20076;-67
2021/06/20 04:24:11;;;;;;;17.40;13.23;;;;;;;19.85;79.71;100436.50;4990256;28;20046;-67
2021/06/20 04:26:36;;;;;;;18.07;14.03;;;;;;;19.86;79.62;100422.72;4988913;28;20467;-67
2021/06/20 04:29:02;;;;;;;18.53;14.77;;;;;;;19.84;79.65;100421.31;4990193;28;20341;-67
2021/06/20 04:31:27;;;;;;;16.57;14.07;;;;;;;19.88;79.46;100420.59;4990019;28;20062;-68
2021/06/20 04:33:52;;;;;;;16.80;13.80;;;;;;;19.87;79.45;100401.88;4989873;28;20043;-67
2021/06/20 04:36:18;;;;;;;17.47;13.67;;;;;;;19.96;78.96;100408.59;4989634;28;20030;-67
2021/06/20 04:38:44;;;;;;;33.77;16.13;;;;;;;19.87;79.45;100404.56;4972868;28;20030;-67
2021/06/20 04:41:13;;;;;;;19.00;15.05;;;;;;;19.94;79.14;100394.47;4988776;28;20371;-67
2021/06/20 04:43:42;;;;;;;16.40;14.65;;;;;;;19.96;79.38;100400.47;4989864;28;20046;-67
2021/06/20 04:46:37;;;;;;;21.95;15.02;;;;;;;19.88;79.56;100400.78;4989624;28;20060;-67
2021/06/20 04:49:08;;;;;;;17.95;12.18;;;;;;;19.99;79.28;100397.28;4991110;28;20148;-67
2021/06/20 04:51:38;;;;;;;16.67;13.00;;;;;;;19.99;78.94;100400.00;4988807;28;20107;-67
2021/06/20 04:54:04;;;;;;;19.30;15.27;;;;;;;19.95;78.88;100383.41;4989890;28;20039;-67
2021/06/20 04:56:29;;;;;;;19.45;13.23;;;;;;;20.02;77.93;100377.88;4971835;28;20053;-67
2021/06/20 04:58:55;;;;;;;17.03;13.20;;;;;;;20.07;78.17;100375.28;4988455;28;20030;-67
2021/06/20 05:01:20;;;;;;;18.77;14.10;;;;;;;20.01;77.30;100365.38;4988195;28;20375;-67
2021/06/20 05:03:47;;;;;;;14.60;13.10;;;;;;;20.06;77.91;100375.50;4989207;28;20037;-67
2021/06/20 05:06:13;;;;;;;25.25;14.40;;;;;;;20.13;77.41;100374.31;4987768;28;20282;-67
2021/06/20 05:08:38;;;;;;;18.90;13.07;;;;;;;20.09;77.28;100359.63;4989080;28;20053;-67
2021/06/20 05:11:03;;;;;;;21.27;13.93;;;;;;;20.03;77.86;100357.84;4989125;28;20034;-67
2021/06/20 05:13:29;;;;;;;18.00;12.23;;;;;;;20.00;78.02;100353.72;4989207;28;20129;-67
2021/06/20 05:15:55;;;;;;;20.77;12.48;;;;;;;20.07;77.75;100348.19;4988947;28;20030;-67
2021/06/20 05:18:20;;;;;;;14.77;12.87;;;;;;;20.04;77.95;100337.81;4989270;28;20065;-67
2021/06/20 05:20:45;;;;;;;17.53;14.87;;;;;;;20.02;77.57;100340.75;4989206;28;20030;-67
2021/06/20 05:23:11;;;;;;;15.53;12.47;;;;;;;20.09;77.34;100365.03;4988781;28;20111;-67
2021/06/20 05:25:36;;;;;;;15.67;11.93;;;;;;;20.09;77.56;100448.19;4987392;28;20052;-67
2021/06/20 05:28:02;;;;;;;16.95;13.48;;;;;;;19.92;79.33;100567.25;4988752;28;20044;-67
2021/06/20 05:30:28;;;;;;;20.63;14.60;;;;;;;19.81;80.21;100474.06;4988291;28;20054;-67
2021/06/20 05:32:54;;;;;;;16.60;14.80;;;;;;;19.78;80.76;100582.84;4988963;28;20034;-67
2021/06/20 05:35:20;;;;;;;;;;;;;;;19.72;81.56;100524.19;4972480;28;20376;-67
2021/06/20 05:37:45;;;;;;;;;;;;;;;19.78;81.60;100558.47;4988279;28;20307;-67
2021/06/20 05:40:11;;;;;;;25.03;18.00;;;;;;;19.70;82.69;100534.41;4989096;28;19914;-67
2021/06/20 05:42:36;;;;;;;26.25;18.27;;;;;;;19.74;82.79;100524.78;4988942;28;20577;-67
2021/06/20 05:45:03;;;;;;;22.03;18.47;;;;;;;19.70;83.04;100500.03;4989112;28;20046;-67
2021/06/20 05:47:28;;;;;;;21.23;17.80;;;;;;;19.80;82.32;100494.88;4987487;28;20386;-67
2021/06/20 05:49:54;;;;;;;22.13;18.53;;;;;;;19.90;82.07;100498.91;4988927;28;20034;-67
2021/06/20 05:52:19;;;;;;;23.50;16.73;;;;;;;19.95;81.55;100508.03;4987799;28;20655;-67
2021/06/20 05:54:50;;;;;;;27.03;18.80;;;;;;;19.81;82.40;100507.38;4988846;28;20030;-67
2021/06/20 05:57:19;;;;;;;27.65;18.65;;;;;;;19.79;83.53;100514.91;4988390;28;20034;-67
2021/06/20 05:59:45;;;;;;;22.42;18.85;;;;;;;19.66;84.47;100525.06;4988796;28;20077;-67
2021/06/20 06:02:11;;;;;;;30.73;21.05;;;;;;;19.54;85.85;100525.00;4987789;28;20406;-67
2021/06/20 06:04:37;;;;;;;21.50;19.10;;;;;;;19.61;85.66;100540.09;4988742;28;20060;-67
2021/06/20 06:07:02;;;;;;;27.15;20.70;;;;;;;19.65;85.94;100532.34;4987402;28;20091;-67
2021/06/20 06:09:28;;;;;;;32.27;24.47;;;;;;;19.50;87.05;100531.91;4988683;28;20038;-69
2021/06/20 06:11:53;;;;;;;33.13;25.07;;;;;;;19.30;88.57;100546.50;4988385;28;20042;-69
2021/06/20 06:14:19;;;;;;;29.70;25.97;;;;;;;19.18;90.11;100521.25;4987743;28;20038;-69
2021/06/20 06:16:45;;;;;;;28.33;22.52;;;;;;;19.15;90.19;100541.47;4988394;28;20049;-70
2021/06/20 06:19:10;;;;;;;28.40;20.00;;;;;;;19.11;90.80;100536.72;4987690;28;20471;-70
2021/06/20 06:21:36;;;;;;;25.43;20.23;;;;;;;18.91;91.67;100540.44;4988639;28;20085;-69
2021/06/20 06:24:02;;;;;;;;;;;;;;;18.87;92.60;100541.09;4989035;28;20502;-69
2021/06/20 06:26:27;;;;;;;;;;;;;;;18.81;92.98;100533.91;4988654;28;19917;-68
2021/06/20 06:28:53;;;;;;;24.77;17.00;;;;;;;18.71;93.31;100556.81;4988486;28;19917;-68
2021/06/20 06:31:18;;;;;;;20.20;16.57;;;;;;;18.69;93.29;100541.88;4987751;28;20045;-69
2021/06/20 06:33:43;;;;;;;24.30;15.23;;;;;;;18.63;93.21;100557.09;4988526;28;20038;-68
2021/06/20 06:36:09;;;;;;;22.77;16.57;;;;;;;18.61;93.58;100555.66;4987272;28;20053;-68
2021/06/20 06:38:34;;;;;;;19.57;14.70;;;;;;;18.58;93.22;100496.63;4992021;28;20030;-68
2021/06/20 06:40:59;;;;;;;17.43;14.13;;;;;;;18.61;93.16;100474.53;4991542;28;20038;-69
2021/06/20 06:43:25;;;;;;;21.10;14.33;;;;;;;18.54;93.48;100482.69;4991938;28;20038;-69
2021/06/20 06:45:50;;;;;;;24.67;15.43;;;;;;;18.46;93.82;100483.81;4991505;28;20113;-69
2021/06/20 06:48:16;;;;;;;32.43;14.57;;;;;;;18.49;94.18;100472.56;4991618;28;20367;-69
2021/06/20 06:50:41;;;;;;;18.60;14.32;;;;;;;18.50;94.20;100435.56;4990694;28;20069;-69
2021/06/20 06:53:07;;;;;;;22.80;14.13;;;;;;;18.46;94.45;100445.97;4991634;28;20092;-69
2021/06/20 06:55:33;;;;;;;23.20;16.33;;;;;;;18.46;95.22;100439.75;4990266;28;20600;-69
2021/06/20 06:57:58;;;;;;;20.10;15.57;;;;;;;18.51;95.63;100437.19;4990451;28;20096;-69
2021/06/20 07:00:24;;;;;;;19.83;14.40;;;;;;;18.53;95.67;100422.41;4991407;28;20406;-69
2021/06/20 07:02:52;;;;;;;16.17;12.80;;;;;;;18.63;95.74;100391.34;4991520;28;20332;-69
2021/06/20 07:05:17;;;;;;;16.20;12.15;;;;;;;18.54;95.16;100390.78;4991323;28;20030;-69
2021/06/20 07:07:43;;;;;;;15.83;11.07;;;;;;;18.66;94.49;100417.91;4990323;28;20039;-69
2021/06/20 07:10:09;;;;;;;19.90;11.50;;;;;;;18.68;93.96;100415.81;4989381;28;20034;-69
2021/06/20 07:12:34;;;;;;;18.27;11.57;;;;;;;18.66;94.56;100404.41;4987793;28;20045;-69
2021/06/20 07:15:04;;;;;;;16.93;12.13;;;;;;;18.65;94.69;100405.47;4989474;28;20049;-69
2021/06/20 07:17:30;;;;;;;14.73;10.82;;;;;;;18.65;94.15;100400.06;4971912;28;20030;-69
2021/06/20 07:19:56;;;;;;;20.33;11.70;;;;;;;18.83;95.27;100405.50;4989302;28;20133;-69
2021/06/20 07:22:21;;;;;;;13.93;10.30;;;;;;;18.78;94.17;100394.53;4989333;28;20151;-69
2021/06/20 07:24:47;;;;;;;13.43;9.47;;;;;;;18.87;93.73;100389.63;4989549;28;20042;-69
2021/06/20 07:27:13;;;;;;;15.00;9.87;;;;;;;18.85;93.28;100384.47;4989928;28;20037;-69
2021/06/20 07:29:40;;;;;;;17.73;10.73;;;;;;;19.17;94.24;100371.59;4991175;28;20045;-69
2021/06/20 07:32:06;;;;;;;16.85;10.80;;;;;;;19.37;92.48;100359.66;4991081;28;20115;-69
2021/06/20 07:34:32;;;;;;;14.52;9.10;;;;;;;19.59;91.48;100355.38;4991111;28;20523;-69
2021/06/20 07:36:57;;;;;;;17.33;9.00;;;;;;;19.82;91.72;100356.50;4990800;28;20061;-69
2021/06/20 07:39:22;;;;;;;14.10;9.97;;;;;;;19.94;90.35;100351.94;4990113;28;20369;-69
2021/06/20 07:41:48;;;;;;;15.23;8.27;;;;;;;19.85;87.96;100353.34;4990115;28;20056;-69
2021/06/20 07:44:13;;;;;;;14.13;8.37;;;;;;;20.16;88.60;100346.78;4973849;28;20091;-69
2021/06/20 07:46:38;;;;;;;12.10;6.60;;;;;;;20.82;86.72;100350.16;4990341;28;20427;-69
2021/06/20 07:49:04;;;;;;;13.93;8.03;;;;;;;21.11;84.97;100346.63;4990983;28;20460;-69
2021/06/20 07:51:30;;;;;;;10.20;6.18;;;;;;;20.52;85.18;100353.00;4989927;28;20573;-69
2021/06/20 07:53:55;;;;;;;12.63;6.60;;;;;;;20.86;84.30;100358.63;4990744;28;20117;-69
2021/06/20 07:56:20;;;;;;;12.37;5.50;;;;;;;20.96;83.22;100350.69;4990513;28;20034;-69
2021/06/20 07:58:46;;;;;;;9.70;5.53;;;;;;;20.86;81.87;100347.75;4990699;28;20039;-69
2021/06/20 08:01:11;;;;;;;8.73;4.97;;;;;;;20.96;83.97;100358.84;4990672;28;20034;-69
2021/06/20 08:03:36;;;;;;;9.50;5.17;;;;;;;21.59;81.66;100343.50;4990734;28;20042;-69
2021/06/20 08:06:02;;;;;;;8.10;4.20;;;;;;;21.79;79.38;100350.31;4990267;28;20070;-69
2021/06/20 08:08:27;;;;;;;9.05;4.07;;;;;;;21.69;78.77;100349.09;4990380;28;20038;-69
2021/06/20 08:10:53;;;;;;;6.83;4.20;;;;;;;21.91;77.29;100341.03;4990574;28;20070;-69
2021/06/20 08:13:18;;;;;;;10.63;5.00;;;;;;;21.31;78.46;100341.59;4990559;28;20061;-69
2021/06/20 08:15:44;;;;;;;9.83;4.33;;;;;;;21.28;80.72;100342.91;4989628;28;20031;-69
2021/06/20 08:18:09;;;;;;;10.35;4.55;;;;;;;21.51;80.85;100338.44;4989272;28;20048;-69
2021/06/20 08:20:35;;;;;;;11.60;4.63;;;;;;;21.34;81.05;100340.28;4990397;28;20038;-69
2021/06/20 08:23:00;;;;;;;7.77;5.17;;;;;;;21.52;81.03;100350.13;4989392;28;20117;-69
2021/06/20 08:25:25;;;;;;;10.00;3.90;;;;;;;21.98;79.13;100348.19;4989459;28;20046;-69
2021/06/20 08:27:51;;;;;;;7.30;4.27;;;;;;;22.12;77.59;100347.63;4972842;28;20038;-69
2021/06/20 08:30:17;;;;;;;8.73;4.87;;;;;;;22.37;77.38;100364.59;4990301;28;20184;-68
2021/06/20 08:32:43;;;;;;;9.65;4.50;;;;;;;22.40;75.60;100355.91;4990265;28;20070;-69
2021/06/20 08:35:09;;;;;;;6.72;3.65;;;;;;;22.51;75.01;100357.72;4973063;28;20488;-69
2021/06/20 08:37:35;;;;;;;8.18;4.80;;;;;;;22.17;75.62;100348.75;4988745;28;20065;-69
2021/06/20 08:40:04;;;;;;;10.15;5.20;;;;;;;22.37;77.14;100359.16;4990112;28;20470;-69
2021/06/20 08:42:29;;;;;;;11.68;4.97;;;;;;;23.28;73.22;100364.94;4988959;28;20455;-69
2021/06/20 08:44:55;;;;;;;9.37;4.73;;;;;;;23.13;74.21;100357.44;4990025;28;20092;-69
2021/06/20 08:47:20;;;;;;;7.10;3.57;;;;;;;23.08;73.19;100351.91;4989603;28;20289;-69
2021/06/20 08:49:46;;;;;;;17.77;4.47;;;;;;;23.63;72.45;100360.13;4989986;28;20289;-68
2021/06/20 08:52:12;;;;;;;7.97;4.00;;;;;;;23.49;69.93;100344.19;4989839;28;20904;-69
2021/06/20 08:54:38;;;;;;;11.25;4.13;;;;;;;23.38;72.05;100354.16;4989950;28;20046;-68
2021/06/20 08:57:06;;;;;;;7.95;4.38;;;;;;;23.29;70.93;100354.88;4989519;28;20451;-69
2021/06/20 08:59:32;;;;;;;7.80;4.55;;;;;;;23.41;72.36;100355.53;4988121;28;20042;-69
2021/06/20 09:01:57;;;;;;;6.93;4.40;;;;;;;23.79;69.81;100348.31;4989789;28;20045;-69
2021/06/20 09:04:36;;;;;;;7.27;3.40;;;;;;;23.89;68.31;100356.56;4989739;28;20075;-69
2021/06/20 09:07:03;;;;;;;6.35;3.42;;;;;;;23.87;68.45;100363.34;4988398;28;20391;-69
2021/06/20 09:09:36;;;;;;;7.70;3.78;;;;;;;24.11;68.05;100366.53;4988782;28;20047;-69
2021/06/20 09:12:10;;;;;;;12.80;4.80;;;;;;;23.81;66.85;100354.28;4988583;28;20034;-69
2021/06/20 09:14:47;;;;;;;4.43;3.47;;;;;;;24.55;68.08;100358.91;4972452;28;20061;-69
2021/06/20 09:17:24;;;;;;;7.18;3.88;;;;;;;24.78;65.55;100360.41;4989075;28;20038;-69
2021/06/20 09:19:58;;;;;;;6.68;3.45;;;;;;;24.91;66.76;100344.59;4989530;28;20080;-69
2021/06/20 09:22:23;;;;;;;10.55;5.30;;;;;;;25.02;64.99;100359.94;4989490;28;20091;-69
2021/06/20 09:25:04;;;;;;;9.20;3.65;;;;;;;24.74;66.87;100363.94;4988649;28;20045;-69
2021/06/20 09:27:30;;;;;;;9.18;3.92;;;;;;;24.49;65.69;100368.19;4988912;28;20109;-69
2021/06/20 09:30:06;;;;;;;9.35;4.50;;;;;;;24.51;66.69;100359.72;4972421;28;20595;-69
2021/06/20 09:32:32;;;;;;;12.43;4.65;;;;;;;24.75;65.32;100358.22;4989413;28;20072;-69
2021/06/20 09:34:59;;;;;;;8.45;4.25;;;;;;;24.02;67.93;100380.66;4989352;28;20074;-69
2021/06/20 09:37:26;;;;;;;8.05;4.13;;;;;;;24.15;66.44;100378.56;4988933;28;20363;-69
2021/06/20 09:39:52;;;;;;;11.63;4.03;;;;;;;23.84;69.01;100370.16;4988301;28;20402;-69
2021/06/20 09:42:17;;;;;;;11.00;4.70;;;;;;;23.36;70.41;100369.09;4988907;28;20236;-69
2021/06/20 09:44:54;;;;;;;9.07;4.03;;;;;;;23.78;70.37;100382.06;4972041;28;20065;-69
2021/06/20 09:47:22;;;;;;;10.63;3.83;;;;;;;23.98;69.20;100390.44;4987864;28;20042;-69
2021/06/20 09:49:50;;;;;;;8.75;4.30;;;;;;;23.53;69.78;100391.63;4989053;28;20085;-69
2021/06/20 09:52:45;;;;;;;7.72;4.13;;;;;;;23.28;70.69;100391.38;4989025;28;20034;-69
2021/06/20 09:55:13;;;;;;;15.50;4.07;;;;;;;22.69;72.25;100397.41;4979701;28;20054;-69
2021/06/20 09:57:43;;;;;;;16.20;5.40;;;;;;;22.76;71.44;100408.94;4987830;28;20035;-69
2021/06/20 10:00:10;;;;;;;9.95;4.95;;;;;;;22.67;71.33;100407.72;4989037;28;20038;-69
2021/06/20 10:02:41;;;;;;;9.65;5.18;;;;;;;22.83;70.93;100406.84;4988039;28;20035;-69
2021/06/20 10:05:09;;;;;;;11.25;4.72;;;;;;;22.75;70.63;100410.00;4988799;28;20038;-69
2021/06/20 10:07:35;;;;;;;17.60;5.30;;;;;;;23.07;69.04;100407.44;4988553;28;20177;-69
2021/06/20 10:10:02;;;;;;;11.45;4.07;;;;;;;23.49;68.54;100414.19;4972495;28;20042;-69
2021/06/20 10:12:28;;;;;;;8.75;4.15;;;;;;;23.35;67.61;100425.47;4992325;28;20038;-69
2021/06/20 10:14:56;;;;;;;10.40;4.13;;;;;;;23.24;69.31;100417.44;4991344;28;20038;-69
2021/06/20 10:17:54;;;;;;;7.47;4.35;;;;;;;23.18;68.31;100411.13;4991113;28;20052;-69
2021/06/20 10:20:21;;;;;;;8.05;4.18;;;;;;;23.33;69.13;100408.56;4988089;28;20046;-69
2021/06/20 10:22:49;;;;;;;8.57;5.10;;;;;;;23.24;67.19;100422.91;4974941;28;20035;-69
2021/06/20 10:25:30;;;;;;;10.50;4.68;;;;;;;24.04;64.58;100418.56;4991259;28;20121;-69
2021/06/20 10:28:10;;;;;;;8.30;4.43;;;;;;;24.58;61.60;100410.25;4991596;28;20129;-69
2021/06/20 10:30:35;;;;;;;6.50;4.72;;;;;;;24.23;61.16;100403.44;4992093;28;20034;-69
2021/06/20 10:33:08;;;;;;;9.00;5.47;;;;;;;23.95;63.75;100410.03;4991190;28;20038;-69
2021/06/20 10:35:34;;;;;;;11.10;5.20;;;;;;;23.86;62.27;100414.31;4990961;28;20484;-69
2021/06/20 10:37:59;;;;;;;;;;;;;;;23.74;63.52;100416.38;4992038;28;20041;-69
2021/06/20 10:40:43;;;;;;;11.77;5.60;;;;;;;23.96;64.27;100414.41;4991821;28;19914;-69
2021/06/20 10:43:13;;;;;;;9.52;5.40;;;;;;;24.37;62.93;100403.81;4990780;28;20059;-69
2021/06/20 10:45:39;;;;;;;7.80;5.32;;;;;;;25.17;59.96;100394.66;4991825;28;20451;-69
2021/06/20 10:48:15;;;;;;;10.70;5.45;;;;;;;25.17;59.54;100408.31;4991601;28;20030;-73
2021/06/20 10:50:41;;;;;;;;;;;;;;;25.54;58.54;100401.91;4992164;28;20039;-73
2021/06/20 10:53:07;;;;;;;8.10;5.43;;;;;;;25.36;59.37;100401.34;4991647;28;19925;-73
2021/06/20 10:55:41;;;;;;;10.80;5.85;;;;;;;26.03;56.41;100391.31;4991734;28;20444;-73
2021/06/20 10:58:28;;;;;;;12.75;5.68;;;;;;;25.77;56.70;100398.66;4990462;28;20459;-73
2021/06/20 11:01:10;;;;;;;9.65;5.35;;;;;;;26.38;55.56;100408.78;4990631;28;20471;-73
2021/06/20 11:03:36;;;;;;;8.27;4.88;;;;;;;26.30;56.61;100407.44;4991577;28;20042;-72
2021/06/20 11:06:04;;;;;;;9.95;5.07;;;;;;;25.96;56.33;100418.13;4991283;28;20064;-72
2021/06/20 11:08:33;;;;;;;12.80;5.35;;;;;;;26.27;57.22;100408.00;4991493;28;20042;-73
2021/06/20 11:11:14;;;;;;;9.52;5.07;;;;;;;25.66;58.07;100408.78;4990669;28;20034;-73
2021/06/20 11:13:42;;;;;;;10.68;5.70;;;;;;;25.51;57.73;100405.19;4974259;28;20053;-73